createdAt,value
2018-08-11T00:01:39.972Z,51.80
2018-08-11T00:04:09.593Z,52.00
2018-08-11T00:06:39.001Z,52.30
2018-08-11T00:09:09.994Z,51.80
2018-08-11T00:11:39.694Z,51.80
2018-08-11T00:14:09.128Z,52.20
2018-08-11T00:16:38.556Z,51.90
2018-08-11T00:19:08.240Z,51.90
2018-08-11T00:21:37.696Z,52.20
2018-08-11T00:24:07.172Z,52.20
2018-08-11T00:26:36.627Z,52.50
2018-08-11T00:29:06.026Z,52.70
2018-08-11T00:31:35.754Z,52.70
2018-08-11T00:34:05.464Z,53.00
2018-08-11T00:36:36.023Z,53.10
2018-08-11T00:39:08.900Z,53.40
2018-08-11T00:41:38.416Z,53.20
2018-08-11T00:44:08.500Z,52.40
2018-08-11T00:46:38.058Z,52.20
2018-08-11T00:49:07.532Z,52.60
2018-08-11T00:51:37.006Z,52.90
2018-08-11T00:54:06.548Z,53.10
2018-08-11T00:56:35.882Z,52.70
2018-08-11T00:59:05.264Z,52.70
2018-08-11T01:01:35.216Z,52.50
2018-08-11T01:04:04.700Z,53.10
2018-08-11T01:06:34.302Z,53.50
2018-08-11T01:09:04.160Z,53.10
2018-08-11T01:11:33.520Z,53.20
2018-08-11T01:14:02.916Z,53.10
2018-08-11T01:16:32.676Z,52.90
2018-08-11T01:19:02.119Z,54.20
2018-08-11T01:21:31.438Z,54.20
2018-08-11T01:24:01.199Z,53.90
2018-08-11T01:26:30.578Z,54.10
2018-08-11T01:28:59.953Z,54.20
2018-08-11T01:31:29.655Z,54.50
2018-08-11T01:33:59.128Z,54.60
2018-08-11T01:36:28.519Z,54.40
2018-08-11T01:38:58.078Z,54.60
2018-08-11T01:41:27.881Z,55.00
2018-08-11T01:43:57.226Z,55.00
2018-08-11T01:46:26.832Z,55.20
2018-08-11T01:48:56.288Z,55.20
2018-08-11T01:51:25.713Z,55.40
2018-08-11T01:53:55.211Z,55.60
2018-08-11T01:56:24.493Z,56.00
2018-08-11T01:58:53.992Z,55.60
2018-08-11T02:01:23.611Z,55.80
2018-08-11T02:03:52.979Z,55.80
2018-08-11T02:06:22.429Z,55.90
2018-08-11T02:08:52.030Z,56.30
2018-08-11T02:11:21.451Z,56.30
2018-08-11T02:13:51.045Z,56.30
2018-08-11T02:16:20.493Z,56.60
2018-08-11T02:18:49.938Z,56.70
2018-08-11T02:21:19.409Z,56.70
2018-08-11T02:23:49.110Z,56.80
2018-08-11T02:26:18.555Z,56.70
2018-08-11T02:28:48.107Z,56.90
2018-08-11T02:31:17.706Z,57.20
2018-08-11T02:33:47.073Z,57.60
2018-08-11T02:36:16.632Z,57.70
2018-08-11T02:38:46.532Z,57.80
2018-08-11T02:41:16.260Z,57.50
2018-08-11T02:43:46.270Z,57.40
2018-08-11T02:46:16.136Z,57.40
2018-08-11T02:48:45.691Z,57.70
2018-08-11T02:51:15.228Z,57.50
2018-08-11T02:53:45.241Z,58.00
2018-08-11T02:56:14.882Z,57.60
2018-08-11T02:58:44.537Z,57.90
2018-08-11T03:01:14.607Z,57.70
2018-08-11T03:03:44.144Z,58.20
2018-08-11T03:06:13.739Z,58.20
2018-08-11T03:08:43.625Z,58.50
2018-08-11T03:11:13.257Z,58.60
2018-08-11T03:14:26.575Z,58.30
2018-08-11T03:16:56.509Z,58.60
2018-08-11T03:19:26.132Z,58.60
2018-08-11T03:21:55.799Z,58.60
2018-08-11T03:24:25.256Z,58.60
2018-08-11T03:26:54.712Z,59.00
2018-08-11T03:29:24.470Z,59.30
2018-08-11T03:31:53.851Z,58.50
2018-08-11T03:34:23.197Z,58.70
2018-08-11T03:36:52.798Z,59.10
2018-08-11T03:39:22.249Z,59.10
2018-08-11T03:41:51.631Z,58.80
2018-08-11T03:44:21.687Z,59.30
2018-08-11T03:46:51.098Z,59.30
2018-08-11T03:49:20.579Z,59.40
2018-08-11T03:51:50.437Z,59.60
2018-08-11T03:54:19.781Z,59.20
2018-08-11T03:56:49.207Z,59.30
2018-08-11T03:59:18.802Z,59.40
2018-08-11T04:01:48.154Z,59.60
2018-08-11T04:04:17.518Z,59.70
2018-08-11T04:06:52.511Z,59.80
2018-08-11T04:09:37.774Z,60.00
2018-08-11T04:12:15.027Z,60.80
2018-08-11T04:15:00.355Z,59.70
2018-08-11T04:17:46.567Z,59.60
2018-08-11T04:20:26.118Z,59.80
2018-08-11T04:23:07.483Z,59.60
2018-08-11T04:25:50.411Z,59.80
2018-08-11T04:28:31.845Z,60.00
2018-08-11T04:31:16.086Z,59.80
2018-08-11T04:33:49.689Z,59.60
2018-08-11T04:36:26.884Z,59.90
2018-08-11T04:38:56.670Z,60.40
2018-08-11T04:41:26.059Z,59.90
2018-08-11T04:43:55.601Z,60.00
2018-08-11T04:46:25.804Z,60.40
2018-08-11T04:48:55.431Z,60.30
2018-08-11T04:51:24.752Z,60.20
2018-08-11T04:53:54.598Z,60.10
2018-08-11T04:56:24.191Z,60.40
2018-08-11T04:58:53.601Z,60.50
2018-08-11T05:01:23.381Z,60.60
2018-08-11T05:03:52.980Z,60.50
2018-08-11T05:06:22.472Z,60.40
2018-08-11T05:08:52.042Z,60.00
2018-08-11T05:11:21.411Z,60.10
2018-08-11T05:13:50.842Z,59.80
2018-08-11T05:16:22.093Z,59.40
2018-08-11T05:18:51.604Z,59.30
2018-08-11T05:21:20.977Z,59.80
2018-08-11T05:23:50.659Z,60.20
2018-08-11T05:26:20.126Z,59.50
2018-08-11T05:28:49.565Z,59.50
2018-08-11T05:31:19.458Z,59.80
2018-08-11T05:33:48.778Z,59.90
2018-08-11T05:36:18.138Z,59.60
2018-08-11T05:38:47.771Z,59.90
2018-08-11T05:41:17.248Z,60.00
2018-08-11T05:43:47.183Z,60.00
2018-08-11T05:46:16.862Z,59.60
2018-08-11T05:48:46.730Z,59.50
2018-08-11T05:51:16.532Z,59.60
2018-08-11T05:53:46.546Z,59.10
2018-08-11T05:56:16.142Z,58.80
2018-08-11T05:58:45.729Z,59.20
2018-08-11T06:01:16.639Z,58.90
2018-08-11T06:03:46.294Z,58.60
2018-08-11T06:06:15.881Z,58.40
2018-08-11T06:08:45.874Z,57.90
2018-08-11T06:11:15.646Z,58.10
2018-08-11T06:13:45.337Z,58.40
2018-08-11T06:16:15.218Z,58.00
2018-08-11T06:18:44.991Z,58.30
2018-08-11T06:21:14.754Z,58.30
2018-08-11T06:23:44.639Z,58.00
2018-08-11T06:26:14.156Z,57.50
2018-08-11T06:28:43.803Z,58.00
2018-08-11T06:31:13.718Z,57.20
2018-08-11T06:33:43.593Z,56.80
2018-08-11T06:36:13.268Z,56.50
2018-08-11T06:38:43.325Z,57.20
2018-08-11T06:41:12.899Z,56.50
2018-08-11T06:43:42.362Z,56.20
2018-08-11T06:46:11.816Z,56.10
2018-08-11T06:48:41.165Z,55.90
2018-08-11T06:51:10.749Z,55.70
2018-08-11T06:53:40.452Z,56.10
2018-08-11T06:56:10.262Z,56.70
2018-08-11T06:58:39.711Z,56.10
2018-08-11T07:01:09.408Z,56.00
2018-08-11T07:03:40.510Z,55.60
2018-08-11T07:06:10.026Z,55.00
2018-08-11T07:08:39.571Z,54.40
2018-08-11T07:11:09.255Z,53.10
2018-08-11T07:13:38.596Z,52.60
2018-08-11T07:16:08.044Z,52.60
2018-08-11T07:18:39.314Z,52.30
2018-08-11T07:21:08.722Z,52.50
2018-08-11T07:23:38.439Z,52.20
2018-08-11T07:26:07.998Z,52.50
2018-08-11T07:28:37.289Z,51.60
2018-08-11T07:31:07.255Z,51.20
2018-08-11T07:33:36.565Z,52.00
2018-08-11T07:36:06.156Z,51.40
2018-08-11T07:38:35.884Z,52.20
2018-08-11T07:41:05.361Z,52.30
2018-08-11T07:43:34.771Z,51.60
2018-08-11T07:46:05.265Z,50.60
2018-08-11T07:48:34.871Z,51.00
2018-08-11T07:51:04.378Z,50.90
2018-08-11T07:53:34.296Z,51.10
2018-08-11T07:56:03.748Z,50.30
2018-08-11T07:58:36.624Z,50.20
2018-08-11T08:01:06.029Z,50.00
2018-08-11T08:03:35.405Z,50.30
2018-08-11T08:06:04.991Z,50.80
2018-08-11T08:08:34.800Z,50.20
2018-08-11T08:11:04.386Z,49.60
2018-08-11T08:13:34.015Z,49.40
2018-08-11T08:16:03.428Z,50.00
2018-08-11T08:18:32.992Z,50.20
2018-08-11T08:21:02.751Z,49.10
2018-08-11T08:23:32.240Z,48.50
2018-08-11T08:26:01.786Z,48.50
2018-08-11T08:28:31.247Z,48.60
2018-08-11T08:31:00.641Z,48.60
2018-08-11T08:33:29.983Z,48.30
2018-08-11T08:35:59.709Z,48.60
2018-08-11T08:38:29.118Z,48.30
2018-08-11T08:40:58.482Z,48.50
2018-08-11T08:43:27.820Z,48.70
2018-08-11T08:45:57.071Z,48.30
2018-08-11T08:48:26.419Z,48.70
2018-08-11T08:50:56.231Z,48.60
2018-08-11T08:53:25.695Z,47.80
2018-08-11T08:55:55.104Z,47.70
2018-08-11T08:58:24.766Z,46.80
2018-08-11T09:00:54.163Z,47.20
2018-08-11T09:03:23.497Z,47.40
2018-08-11T09:05:53.196Z,47.10
2018-08-11T09:08:22.744Z,46.60
2018-08-11T09:10:52.198Z,47.30
2018-08-11T09:13:21.675Z,47.50
2018-08-11T09:15:51.134Z,48.20
2018-08-11T09:18:20.815Z,48.60
2018-08-11T09:20:50.354Z,47.50
2018-08-11T09:23:19.716Z,47.30
2018-08-11T09:25:49.208Z,47.50
2018-08-11T09:28:18.624Z,47.90
2018-08-11T09:30:48.148Z,46.80
2018-08-11T09:33:17.713Z,47.80
2018-08-11T09:35:47.872Z,47.00
2018-08-11T09:38:17.425Z,47.50
2018-08-11T09:40:47.394Z,45.90
2018-08-11T09:43:17.134Z,46.70
2018-08-11T09:45:47.055Z,46.50
2018-08-11T09:48:16.708Z,46.90
2018-08-11T09:50:46.756Z,46.40
2018-08-11T09:53:16.382Z,46.40
2018-08-11T09:55:46.142Z,46.50
2018-08-11T09:58:16.036Z,46.50
2018-08-11T10:00:50.287Z,47.20
2018-08-11T10:03:20.169Z,47.70
2018-08-11T10:05:49.524Z,46.20
2018-08-11T10:08:18.942Z,45.00
2018-08-11T10:10:48.556Z,46.30
2018-08-11T10:13:18.428Z,45.00
2018-08-11T10:15:47.819Z,44.50
2018-08-11T10:18:17.972Z,45.20
2018-08-11T10:20:47.686Z,46.70
2018-08-11T10:23:17.410Z,45.00
2018-08-11T10:25:47.408Z,44.50
2018-08-11T10:28:17.028Z,44.20
2018-08-11T10:30:48.355Z,44.30
2018-08-11T10:33:18.319Z,44.30
2018-08-11T10:35:47.735Z,43.00
2018-08-11T10:38:17.449Z,43.00
2018-08-11T10:40:47.170Z,45.40
2018-08-11T10:43:17.023Z,44.70
2018-08-11T10:45:48.415Z,42.80
2018-08-11T10:48:18.037Z,43.50
2018-08-11T10:50:47.500Z,41.80
2018-08-11T10:53:17.144Z,42.10
2018-08-11T10:55:47.171Z,43.50
2018-08-11T10:58:16.919Z,45.20
2018-08-11T11:00:46.918Z,44.80
2018-08-11T11:03:17.076Z,43.70
2018-08-11T11:05:47.116Z,41.90
2018-08-11T11:08:18.376Z,40.00
2018-08-11T11:10:47.962Z,40.70
2018-08-11T11:13:17.680Z,41.20
2018-08-11T11:15:47.449Z,41.70
2018-08-11T11:18:17.085Z,41.10
2018-08-11T11:20:46.855Z,42.00
2018-08-11T11:23:16.924Z,41.10
2018-08-11T11:25:46.880Z,42.70
2018-08-11T11:28:16.682Z,41.90
2018-08-11T11:30:46.964Z,41.00
2018-08-11T11:33:16.834Z,41.00
2018-08-11T11:35:46.775Z,41.70
2018-08-11T11:38:16.565Z,42.10
2018-08-11T11:40:47.164Z,40.30
2018-08-11T11:43:17.692Z,39.60
2018-08-11T11:45:47.573Z,39.30
2018-08-11T11:48:17.557Z,40.10
2018-08-11T11:50:48.135Z,40.80
2018-08-11T11:53:17.749Z,38.00
2018-08-11T11:55:47.772Z,38.20
2018-08-11T11:58:17.561Z,38.20
2018-08-11T12:00:47.427Z,38.90
2018-08-11T12:03:18.951Z,36.00
2018-08-11T12:05:48.372Z,37.70
2018-08-11T12:08:17.871Z,38.30
2018-08-11T12:10:47.719Z,36.80
2018-08-11T12:13:17.515Z,37.80
2018-08-11T12:15:47.323Z,37.30
2018-08-11T12:18:17.325Z,37.60
2018-08-11T12:20:47.065Z,38.40
2018-08-11T12:23:16.920Z,37.70
2018-08-11T12:25:46.726Z,38.70
2018-08-11T12:28:16.384Z,38.30
2018-08-11T12:30:46.040Z,37.20
2018-08-11T12:33:16.125Z,36.90
2018-08-11T12:35:45.886Z,37.00
2018-08-11T12:38:15.630Z,37.10
2018-08-11T12:40:45.600Z,37.00
2018-08-11T12:43:15.184Z,35.80
2018-08-11T12:45:44.728Z,36.70
2018-08-11T12:48:14.795Z,38.20
2018-08-11T12:50:44.600Z,36.20
2018-08-11T12:53:14.299Z,37.30
2018-08-11T12:55:44.263Z,36.70
2018-08-11T12:58:13.784Z,37.10
2018-08-11T13:00:43.234Z,36.50
2018-08-11T13:03:12.667Z,35.90
2018-08-11T13:05:42.492Z,37.80
2018-08-11T13:08:12.032Z,38.20
2018-08-11T13:10:41.794Z,37.70
2018-08-11T13:13:11.160Z,36.70
2018-08-11T13:15:40.698Z,36.70
2018-08-11T13:18:10.218Z,36.80
2018-08-11T13:20:39.775Z,38.40
2018-08-11T13:23:09.226Z,37.30
2018-08-11T13:25:38.836Z,36.50
2018-08-11T13:28:08.177Z,36.90
2018-08-11T13:30:38.371Z,37.00
2018-08-11T13:33:08.074Z,38.20
2018-08-11T13:35:37.569Z,37.40
2018-08-11T13:38:07.066Z,37.50
2018-08-11T13:40:36.752Z,36.90
2018-08-11T13:43:06.880Z,38.20
2018-08-11T13:45:37.300Z,38.00
2018-08-11T13:48:07.037Z,39.50
2018-08-11T13:50:36.709Z,39.40
2018-08-11T13:53:06.355Z,38.40
2018-08-11T13:55:36.019Z,39.30
2018-08-11T13:58:05.787Z,40.40
2018-08-11T14:00:35.472Z,40.60
2018-08-11T14:03:05.111Z,41.70
2018-08-11T14:05:34.581Z,41.60
2018-08-11T14:08:16.584Z,40.70
2018-08-11T14:10:46.503Z,40.70
2018-08-11T14:13:16.443Z,40.70
2018-08-11T14:15:46.019Z,40.70
2018-08-11T14:18:15.693Z,40.90
2018-08-11T14:20:45.553Z,41.80
2018-08-11T14:23:15.109Z,42.90
2018-08-11T14:25:44.677Z,42.50
2018-08-11T14:28:14.429Z,41.00
2018-08-11T14:30:43.831Z,41.90
2018-08-11T14:33:13.352Z,43.20
2018-08-11T14:35:43.257Z,43.40
2018-08-11T14:38:13.116Z,44.60
2018-08-11T14:40:42.519Z,43.60
2018-08-11T14:43:12.210Z,43.40
2018-08-11T14:45:41.576Z,42.40
2018-08-11T14:48:10.979Z,43.70
2018-08-11T14:50:40.692Z,43.80
2018-08-11T14:53:10.065Z,43.50
2018-08-11T14:55:39.441Z,43.00
2018-08-11T14:58:09.770Z,42.40
2018-08-11T15:00:39.195Z,45.30
2018-08-11T15:03:08.697Z,44.90
2018-08-11T15:05:38.281Z,45.60
2018-08-11T15:08:07.799Z,46.10
2018-08-11T15:10:37.337Z,46.20
2018-08-11T15:13:07.462Z,45.90
2018-08-11T15:15:36.910Z,45.00
2018-08-11T15:18:06.570Z,44.10
2018-08-11T15:20:36.179Z,44.40
2018-08-11T15:23:05.697Z,43.60
2018-08-11T15:25:35.137Z,43.20
2018-08-11T15:28:05.218Z,43.80
2018-08-11T15:30:34.733Z,42.90
2018-08-11T15:33:04.114Z,42.50
2018-08-11T15:35:33.737Z,42.10
2018-08-11T15:38:03.065Z,44.10
2018-08-11T15:40:32.537Z,44.10
2018-08-11T15:43:02.351Z,44.20
2018-08-11T15:45:31.722Z,43.40
2018-08-11T15:48:00.999Z,44.30
2018-08-11T15:50:30.544Z,45.50
2018-08-11T15:53:00.009Z,46.60
2018-08-11T15:55:29.431Z,47.30
2018-08-11T15:57:59.040Z,47.20
2018-08-11T16:00:28.829Z,47.50
2018-08-11T16:02:58.214Z,47.70
2018-08-11T16:05:27.910Z,47.90
2018-08-11T16:07:57.408Z,48.00
2018-08-11T16:10:27.065Z,46.90
2018-08-11T16:12:56.668Z,48.10
2018-08-11T16:15:26.080Z,48.40
2018-08-11T16:17:55.557Z,47.90
2018-08-11T16:20:27.211Z,48.60
2018-08-11T16:22:56.541Z,48.90
2018-08-11T16:25:25.882Z,49.70
2018-08-11T16:27:55.502Z,49.80
2018-08-11T16:30:25.020Z,49.40
2018-08-11T16:32:54.431Z,50.70
2018-08-11T16:35:24.006Z,51.60
2018-08-11T16:37:55.388Z,52.20
2018-08-11T16:40:24.835Z,52.70
2018-08-11T16:42:54.420Z,54.20
2018-08-11T16:45:24.058Z,57.90
2018-08-11T16:47:53.582Z,61.30
2018-08-11T16:50:22.994Z,61.70
2018-08-11T16:52:52.527Z,61.70
2018-08-11T16:55:21.943Z,61.30
2018-08-11T16:57:51.419Z,61.30
2018-08-11T17:00:20.924Z,61.80
2018-08-11T17:02:50.541Z,61.90
2018-08-11T17:05:19.893Z,62.00
2018-08-11T17:07:49.321Z,62.00
2018-08-11T17:10:19.146Z,62.10
2018-08-11T17:12:48.685Z,62.50
2018-08-11T17:15:18.419Z,62.50
2018-08-11T17:17:47.982Z,62.40
2018-08-11T17:20:17.791Z,63.30
2018-08-11T17:22:47.381Z,63.40
2018-08-11T17:25:17.224Z,63.50
2018-08-11T17:27:47.008Z,64.10
2018-08-11T17:30:17.042Z,64.80
2018-08-11T17:32:46.948Z,64.90
2018-08-11T17:35:17.704Z,65.00
2018-08-11T17:37:48.236Z,64.40
2018-08-11T17:40:17.793Z,64.50
2018-08-11T17:42:47.396Z,65.20
2018-08-11T17:45:17.467Z,65.60
2018-08-11T17:47:47.380Z,65.80
2018-08-11T17:50:17.357Z,65.30
2018-08-11T17:52:47.677Z,64.80
2018-08-11T17:55:17.678Z,65.30
2018-08-11T17:57:47.498Z,65.00
2018-08-11T18:00:17.333Z,64.90
2018-08-11T18:02:47.341Z,65.40
2018-08-11T18:05:17.328Z,66.20
2018-08-11T18:07:50.024Z,66.00
2018-08-11T18:10:20.054Z,65.20
2018-08-11T18:12:49.586Z,65.30
2018-08-11T18:15:19.606Z,65.40
2018-08-11T18:17:49.058Z,65.50
2018-08-11T18:20:18.703Z,65.30
2018-08-11T18:22:48.188Z,65.80
2018-08-11T18:25:17.585Z,66.00
2018-08-11T18:27:47.531Z,66.40
2018-08-11T18:30:17.229Z,66.60
2018-08-11T18:32:46.923Z,66.90
2018-08-11T18:35:17.017Z,67.00
2018-08-11T18:37:46.765Z,67.10
2018-08-11T18:40:16.490Z,67.20
2018-08-11T18:42:46.299Z,67.40
2018-08-11T18:45:15.916Z,67.30
2018-08-11T18:47:45.744Z,68.20
2018-08-11T18:50:15.756Z,67.30
2018-08-11T18:52:45.920Z,66.70
2018-08-11T18:55:15.717Z,66.90
2018-08-11T18:57:45.850Z,67.20
2018-08-11T19:00:17.183Z,67.10
2018-08-11T19:02:47.054Z,67.40
2018-08-11T19:05:16.731Z,67.60
2018-08-11T19:07:46.318Z,67.80
2018-08-11T19:10:16.438Z,67.90
2018-08-11T19:12:46.097Z,67.80
2018-08-11T19:15:15.842Z,67.30
2018-08-11T19:17:46.076Z,67.80
2018-08-11T19:20:16.869Z,68.00
2018-08-11T19:22:46.974Z,68.20
2018-08-11T19:25:16.742Z,68.10
2018-08-11T19:27:46.351Z,67.90
2018-08-11T19:30:16.155Z,68.40
2018-08-11T19:32:46.227Z,68.40
2018-08-11T19:35:15.882Z,68.00
2018-08-11T19:37:45.952Z,68.00
2018-08-11T19:40:15.967Z,67.90
2018-08-11T19:42:45.748Z,67.90
2018-08-11T19:45:15.225Z,67.70
2018-08-11T19:47:45.094Z,67.60
2018-08-11T19:50:14.625Z,68.10
2018-08-11T19:52:44.162Z,68.30
2018-08-11T19:55:14.124Z,68.40
2018-08-11T19:57:43.683Z,68.40
2018-08-11T20:00:14.861Z,68.80
2018-08-11T20:02:44.699Z,68.70
2018-08-11T20:05:14.457Z,68.40
2018-08-11T20:07:44.114Z,68.20
2018-08-11T20:10:13.505Z,68.60
2018-08-11T20:12:43.228Z,68.10
2018-08-11T20:15:12.925Z,68.00
2018-08-11T20:17:42.385Z,68.20
2018-08-11T20:20:11.951Z,68.50
2018-08-11T20:22:41.638Z,68.60
2018-08-11T20:25:11.707Z,68.60
2018-08-11T20:27:41.259Z,68.60
2018-08-11T20:30:12.302Z,68.30
2018-08-11T20:32:42.317Z,68.70
2018-08-11T20:35:11.738Z,69.00
2018-08-11T20:37:41.538Z,69.10
2018-08-11T20:40:11.316Z,69.40
2018-08-11T20:42:40.717Z,69.90
2018-08-11T20:45:10.781Z,69.40
2018-08-11T20:47:40.227Z,70.10
2018-08-11T20:50:10.120Z,70.10
2018-08-11T20:52:39.824Z,70.20
2018-08-11T20:55:09.767Z,70.40
2018-08-11T20:57:39.276Z,70.70
2018-08-11T21:00:12.136Z,70.50
2018-08-11T21:02:41.634Z,70.30
2018-08-11T21:05:13.241Z,71.20
2018-08-11T21:07:44.111Z,70.60
2018-08-11T21:10:15.193Z,70.70
2018-08-11T21:12:45.308Z,70.70
2018-08-11T21:15:14.918Z,71.10
2018-08-11T21:17:44.767Z,71.20
2018-08-11T21:20:15.316Z,71.50
2018-08-11T21:22:45.286Z,71.50
2018-08-11T21:25:15.161Z,71.30
2018-08-11T21:27:45.152Z,71.40
2018-08-11T21:30:15.938Z,71.50
2018-08-11T21:32:45.826Z,71.60
2018-08-11T21:35:15.463Z,71.70
2018-08-11T21:37:45.203Z,71.60
2018-08-11T21:40:16.243Z,71.80
2018-08-11T21:42:45.886Z,71.90
2018-08-11T21:45:16.132Z,72.10
2018-08-11T21:47:48.705Z,71.90
2018-08-11T21:50:18.263Z,72.10
2018-08-11T21:52:48.120Z,71.90
2018-08-11T21:55:17.868Z,71.90
2018-08-11T21:57:47.592Z,71.90
2018-08-11T22:00:32.352Z,71.90
2018-08-11T22:03:01.969Z,71.90
2018-08-11T22:05:31.516Z,72.80
2018-08-11T22:08:02.639Z,71.80
2018-08-11T22:10:32.304Z,71.80
2018-08-11T22:13:02.431Z,71.60
2018-08-11T22:15:32.040Z,71.80
2018-08-11T22:18:01.605Z,71.70
2018-08-11T22:20:31.207Z,72.10
2018-08-11T22:23:01.120Z,72.10
2018-08-11T22:25:30.634Z,72.20
2018-08-11T22:28:00.057Z,72.20
2018-08-11T22:30:29.847Z,72.10
2018-08-11T22:32:59.314Z,72.30
2018-08-11T22:35:28.747Z,72.40
2018-08-11T22:37:58.457Z,72.00
2018-08-11T22:40:27.853Z,71.80
2018-08-11T22:42:57.365Z,72.10
2018-08-11T22:45:26.977Z,72.40
2018-08-11T22:47:56.470Z,72.60
2018-08-11T22:50:26.149Z,72.70
2018-08-11T22:52:55.906Z,72.70
2018-08-11T22:55:25.362Z,72.70
2018-08-11T22:57:54.824Z,72.60
2018-08-11T23:00:24.490Z,72.60
2018-08-11T23:02:54.079Z,72.50
2018-08-11T23:05:23.739Z,72.60
2018-08-11T23:07:53.506Z,72.70
2018-08-11T23:10:22.950Z,72.70
2018-08-11T23:12:52.316Z,72.80
2018-08-11T23:15:22.044Z,72.80
2018-08-11T23:17:51.677Z,72.80
2018-08-11T23:20:21.074Z,73.00
2018-08-11T23:22:51.670Z,73.20
2018-08-11T23:25:21.056Z,73.20
2018-08-11T23:27:50.516Z,73.10
2018-08-11T23:30:20.324Z,73.10
2018-08-11T23:32:49.900Z,73.10
2018-08-11T23:35:19.425Z,73.20
2018-08-11T23:37:49.134Z,73.20
2018-08-11T23:40:18.642Z,73.30
2018-08-11T23:42:48.166Z,73.40
2018-08-11T23:45:18.712Z,73.40
2018-08-11T23:47:48.397Z,73.40
2018-08-11T23:50:18.112Z,73.30
2018-08-11T23:52:47.935Z,73.30
2018-08-11T23:55:17.799Z,73.20
2018-08-11T23:57:47.456Z,73.00
